sensor_id;sensor_type;location;lat;lon;timestamp;P1;durP1;ratioP1;P2;durP2;ratioP2
11016;SDS011;54687;50.800;6.772;2023-05-19T00:02:00;4.68;;;3.35;;
11016;SDS011;54687;50.800;6.772;2023-05-19T00:04:30;2.95;;;2.72;;
11016;SDS011;54687;50.800;6.772;2023-05-19T00:06:58;6.10;;;3.35;;
11016;SDS011;54687;50.800;6.772;2023-05-19T00:09:26;4.80;;;3.05;;
11016;SDS011;54687;50.800;6.772;2023-05-19T00:11:53;5.35;;;3.28;;
11016;SDS011;54687;50.800;6.772;2023-05-19T00:14:20;5.32;;;3.58;;
11016;SDS011;54687;50.800;6.772;2023-05-19T00:16:47;6.28;;;3.33;;
11016;SDS011;54687;50.800;6.772;2023-05-19T00:19:14;6.20;;;3.85;;
11016;SDS011;54687;50.800;6.772;2023-05-19T00:21:42;4.70;;;3.90;;
11016;SDS011;54687;50.800;6.772;2023-05-19T00:24:10;4.85;;;3.80;;
11016;SDS011;54687;50.800;6.772;2023-05-19T00:26:37;4.95;;;3.35;;
11016;SDS011;54687;50.800;6.772;2023-05-19T00:29:04;3.75;;;3.05;;
11016;SDS011;54687;50.800;6.772;2023-05-19T00:31:31;4.35;;;3.58;;
11016;SDS011;54687;50.800;6.772;2023-05-19T00:33:58;6.78;;;3.80;;
11016;SDS011;54687;50.800;6.772;2023-05-19T00:36:24;4.82;;;3.67;;
11016;SDS011;54687;50.800;6.772;2023-05-19T00:38:51;5.15;;;3.42;;
11016;SDS011;54687;50.800;6.772;2023-05-19T00:41:19;4.72;;;3.03;;
11016;SDS011;54687;50.800;6.772;2023-05-19T00:43:46;4.93;;;3.10;;
11016;SDS011;54687;50.800;6.772;2023-05-19T00:46:13;5.15;;;3.78;;
11016;SDS011;54687;50.800;6.772;2023-05-19T00:48:41;5.47;;;3.58;;
11016;SDS011;54687;50.800;6.772;2023-05-19T00:51:09;4.38;;;3.97;;
11016;SDS011;54687;50.800;6.772;2023-05-19T00:53:40;5.90;;;3.67;;
11016;SDS011;54687;50.800;6.772;2023-05-19T00:56:12;5.53;;;3.70;;
11016;SDS011;54687;50.800;6.772;2023-05-19T00:58:41;3.88;;;3.50;;
11016;SDS011;54687;50.800;6.772;2023-05-19T01:01:07;4.68;;;3.75;;
11016;SDS011;54687;50.800;6.772;2023-05-19T01:03:41;5.15;;;3.97;;
11016;SDS011;54687;50.800;6.772;2023-05-19T01:06:09;4.18;;;3.65;;
11016;SDS011;54687;50.800;6.772;2023-05-19T01:08:36;7.25;;;4.35;;
11016;SDS011;54687;50.800;6.772;2023-05-19T01:11:04;5.53;;;3.50;;
11016;SDS011;54687;50.800;6.772;2023-05-19T01:13:31;4.95;;;3.50;;
11016;SDS011;54687;50.800;6.772;2023-05-19T01:16:03;5.97;;;3.90;;
11016;SDS011;54687;50.800;6.772;2023-05-19T01:18:42;4.65;;;3.83;;
11016;SDS011;54687;50.800;6.772;2023-05-19T01:21:18;4.70;;;3.90;;
11016;SDS011;54687;50.800;6.772;2023-05-19T01:24:03;6.15;;;3.80;;
11016;SDS011;54687;50.800;6.772;2023-05-19T01:27:08;4.72;;;3.50;;
11016;SDS011;54687;50.800;6.772;2023-05-19T01:30:05;4.30;;;3.47;;
11016;SDS011;54687;50.800;6.772;2023-05-19T01:32:40;4.63;;;3.85;;
11016;SDS011;54687;50.800;6.772;2023-05-19T01:35:07;4.88;;;3.90;;
11016;SDS011;54687;50.800;6.772;2023-05-19T01:37:35;5.95;;;3.53;;
11016;SDS011;54687;50.800;6.772;2023-05-19T01:40:04;4.35;;;3.95;;
11016;SDS011;54687;50.800;6.772;2023-05-19T01:42:32;5.03;;;3.50;;
11016;SDS011;54687;50.800;6.772;2023-05-19T01:45:02;4.10;;;3.70;;
11016;SDS011;54687;50.800;6.772;2023-05-19T01:47:31;3.78;;;3.45;;
11016;SDS011;54687;50.800;6.772;2023-05-19T01:50:02;4.47;;;3.72;;
11016;SDS011;54687;50.800;6.772;2023-05-19T01:52:29;4.78;;;3.42;;
11016;SDS011;54687;50.800;6.772;2023-05-19T01:54:55;4.70;;;4.07;;
11016;SDS011;54687;50.800;6.772;2023-05-19T01:57:23;5.03;;;3.50;;
11016;SDS011;54687;50.800;6.772;2023-05-19T02:00:00;5.32;;;3.65;;
11016;SDS011;54687;50.800;6.772;2023-05-19T02:02:42;5.97;;;4.00;;
11016;SDS011;54687;50.800;6.772;2023-05-19T02:05:19;3.95;;;3.40;;
11016;SDS011;54687;50.800;6.772;2023-05-19T02:07:56;4.15;;;3.70;;
11016;SDS011;54687;50.800;6.772;2023-05-19T02:10:27;3.55;;;3.25;;
11016;SDS011;54687;50.800;6.772;2023-05-19T02:12:56;4.82;;;3.38;;
11016;SDS011;54687;50.800;6.772;2023-05-19T02:15:27;5.05;;;3.95;;
11016;SDS011;54687;50.800;6.772;2023-05-19T02:18:00;3.95;;;3.42;;
11016;SDS011;54687;50.800;6.772;2023-05-19T02:20:28;4.07;;;3.15;;
11016;SDS011;54687;50.800;6.772;2023-05-19T02:22:55;4.85;;;3.50;;
11016;SDS011;54687;50.800;6.772;2023-05-19T02:25:22;5.00;;;3.85;;
11016;SDS011;54687;50.800;6.772;2023-05-19T02:27:49;6.25;;;3.88;;
11016;SDS011;54687;50.800;6.772;2023-05-19T02:30:17;5.10;;;3.78;;
11016;SDS011;54687;50.800;6.772;2023-05-19T02:32:44;5.35;;;4.15;;
11016;SDS011;54687;50.800;6.772;2023-05-19T02:35:12;5.20;;;3.70;;
11016;SDS011;54687;50.800;6.772;2023-05-19T02:37:39;4.57;;;4.15;;
11016;SDS011;54687;50.800;6.772;2023-05-19T02:40:06;4.18;;;3.65;;
11016;SDS011;54687;50.800;6.772;2023-05-19T02:42:33;4.78;;;3.80;;
11016;SDS011;54687;50.800;6.772;2023-05-19T02:45:00;5.47;;;3.92;;
11016;SDS011;54687;50.800;6.772;2023-05-19T02:47:26;5.32;;;3.92;;
11016;SDS011;54687;50.800;6.772;2023-05-19T02:49:53;4.55;;;3.65;;
11016;SDS011;54687;50.800;6.772;2023-05-19T02:52:21;4.10;;;3.70;;
11016;SDS011;54687;50.800;6.772;2023-05-19T02:54:47;5.40;;;3.75;;
11016;SDS011;54687;50.800;6.772;2023-05-19T02:57:14;5.78;;;4.05;;
11016;SDS011;54687;50.800;6.772;2023-05-19T02:59:40;6.35;;;4.28;;
11016;SDS011;54687;50.800;6.772;2023-05-19T03:02:07;5.68;;;3.85;;
11016;SDS011;54687;50.800;6.772;2023-05-19T03:04:34;6.45;;;4.07;;
11016;SDS011;54687;50.800;6.772;2023-05-19T03:07:05;5.63;;;3.90;;
11016;SDS011;54687;50.800;6.772;2023-05-19T03:09:35;6.63;;;4.00;;
11016;SDS011;54687;50.800;6.772;2023-05-19T03:12:02;4.70;;;4.30;;
11016;SDS011;54687;50.800;6.772;2023-05-19T03:14:30;6.47;;;4.28;;
11016;SDS011;54687;50.800;6.772;2023-05-19T03:16:58;4.95;;;4.45;;
11016;SDS011;54687;50.800;6.772;2023-05-19T03:19:25;7.32;;;4.53;;
11016;SDS011;54687;50.800;6.772;2023-05-19T03:21:52;6.30;;;3.83;;
11016;SDS011;54687;50.800;6.772;2023-05-19T03:24:20;4.50;;;4.10;;
11016;SDS011;54687;50.800;6.772;2023-05-19T03:26:48;7.32;;;4.10;;
11016;SDS011;54687;50.800;6.772;2023-05-19T03:29:15;5.68;;;3.97;;
11016;SDS011;54687;50.800;6.772;2023-05-19T03:31:42;5.45;;;4.22;;
11016;SDS011;54687;50.800;6.772;2023-05-19T03:34:08;4.72;;;4.22;;
11016;SDS011;54687;50.800;6.772;2023-05-19T03:36:35;6.45;;;3.97;;
11016;SDS011;54687;50.800;6.772;2023-05-19T03:39:03;18.85;;;8.02;;
11016;SDS011;54687;50.800;6.772;2023-05-19T03:41:30;5.47;;;4.45;;
11016;SDS011;54687;50.800;6.772;2023-05-19T03:43:58;5.00;;;4.50;;
11016;SDS011;54687;50.800;6.772;2023-05-19T03:46:26;5.20;;;4.75;;
11016;SDS011;54687;50.800;6.772;2023-05-19T03:48:53;6.40;;;4.28;;
11016;SDS011;54687;50.800;6.772;2023-05-19T03:51:19;5.72;;;4.80;;
11016;SDS011;54687;50.800;6.772;2023-05-19T03:53:46;9.10;;;4.30;;
11016;SDS011;54687;50.800;6.772;2023-05-19T03:56:13;4.55;;;3.88;;
11016;SDS011;54687;50.800;6.772;2023-05-19T03:58:42;5.03;;;4.50;;
11016;SDS011;54687;50.800;6.772;2023-05-19T04:01:12;5.55;;;5.03;;
11016;SDS011;54687;50.800;6.772;2023-05-19T04:03:39;5.10;;;4.30;;
11016;SDS011;54687;50.800;6.772;2023-05-19T04:06:06;5.15;;;4.57;;
11016;SDS011;54687;50.800;6.772;2023-05-19T04:08:33;4.90;;;4.38;;
11016;SDS011;54687;50.800;6.772;2023-05-19T04:11:00;5.90;;;5.30;;
11016;SDS011;54687;50.800;6.772;2023-05-19T04:13:27;8.07;;;4.82;;
11016;SDS011;54687;50.800;6.772;2023-05-19T04:15:54;7.88;;;5.97;;
11016;SDS011;54687;50.800;6.772;2023-05-19T04:18:22;4.90;;;4.40;;
11016;SDS011;54687;50.800;6.772;2023-05-19T04:20:48;6.18;;;4.88;;
11016;SDS011;54687;50.800;6.772;2023-05-19T04:23:15;6.35;;;5.03;;
11016;SDS011;54687;50.800;6.772;2023-05-19T04:25:41;5.95;;;4.28;;
11016;SDS011;54687;50.800;6.772;2023-05-19T04:28:08;4.43;;;4.03;;
11016;SDS011;54687;50.800;6.772;2023-05-19T04:30:35;6.03;;;4.38;;
11016;SDS011;54687;50.800;6.772;2023-05-19T04:33:02;4.88;;;4.35;;
11016;SDS011;54687;50.800;6.772;2023-05-19T04:35:30;5.63;;;4.30;;
11016;SDS011;54687;50.800;6.772;2023-05-19T04:37:57;7.00;;;5.10;;
11016;SDS011;54687;50.800;6.772;2023-05-19T04:40:24;5.75;;;4.55;;
11016;SDS011;54687;50.800;6.772;2023-05-19T04:42:50;4.47;;;4.07;;
11016;SDS011;54687;50.800;6.772;2023-05-19T04:45:18;5.00;;;4.60;;
11016;SDS011;54687;50.800;6.772;2023-05-19T04:47:45;7.20;;;4.38;;
11016;SDS011;54687;50.800;6.772;2023-05-19T04:50:12;5.40;;;4.22;;
11016;SDS011;54687;50.800;6.772;2023-05-19T04:52:40;4.50;;;4.10;;
11016;SDS011;54687;50.800;6.772;2023-05-19T04:55:09;5.47;;;4.15;;
11016;SDS011;54687;50.800;6.772;2023-05-19T04:57:37;4.63;;;4.22;;
11016;SDS011;54687;50.800;6.772;2023-05-19T05:00:06;7.43;;;5.03;;
11016;SDS011;54687;50.800;6.772;2023-05-19T05:02:39;5.32;;;4.82;;
11016;SDS011;54687;50.800;6.772;2023-05-19T05:05:07;4.93;;;4.35;;
11016;SDS011;54687;50.800;6.772;2023-05-19T05:07:34;4.18;;;3.85;;
11016;SDS011;54687;50.800;6.772;2023-05-19T05:10:02;5.28;;;4.63;;
11016;SDS011;54687;50.800;6.772;2023-05-19T05:12:30;5.63;;;4.50;;
11016;SDS011;54687;50.800;6.772;2023-05-19T05:14:57;6.57;;;4.30;;
11016;SDS011;54687;50.800;6.772;2023-05-19T05:17:24;5.95;;;4.53;;
11016;SDS011;54687;50.800;6.772;2023-05-19T05:19:52;8.85;;;5.25;;
11016;SDS011;54687;50.800;6.772;2023-05-19T05:22:19;6.10;;;4.70;;
11016;SDS011;54687;50.800;6.772;2023-05-19T05:24:46;6.35;;;4.38;;
11016;SDS011;54687;50.800;6.772;2023-05-19T05:27:16;5.35;;;4.82;;
11016;SDS011;54687;50.800;6.772;2023-05-19T05:29:42;6.43;;;5.07;;
11016;SDS011;54687;50.800;6.772;2023-05-19T05:32:09;5.72;;;5.15;;
11016;SDS011;54687;50.800;6.772;2023-05-19T05:34:35;6.90;;;4.25;;
11016;SDS011;54687;50.800;6.772;2023-05-19T05:37:04;6.32;;;4.93;;
11016;SDS011;54687;50.800;6.772;2023-05-19T05:39:30;6.55;;;4.80;;
11016;SDS011;54687;50.800;6.772;2023-05-19T05:41:57;7.13;;;4.82;;
11016;SDS011;54687;50.800;6.772;2023-05-19T05:44:25;6.70;;;4.85;;
11016;SDS011;54687;50.800;6.772;2023-05-19T05:46:52;7.85;;;5.00;;
11016;SDS011;54687;50.800;6.772;2023-05-19T05:49:19;6.18;;;4.82;;
11016;SDS011;54687;50.800;6.772;2023-05-19T05:51:46;9.20;;;4.78;;
11016;SDS011;54687;50.800;6.772;2023-05-19T05:54:13;8.93;;;4.68;;
11016;SDS011;54687;50.800;6.772;2023-05-19T05:56:43;7.25;;;5.40;;
11016;SDS011;54687;50.800;6.772;2023-05-19T05:59:10;8.05;;;5.00;;
11016;SDS011;54687;50.800;6.772;2023-05-19T06:01:38;6.68;;;5.65;;
11016;SDS011;54687;50.800;6.772;2023-05-19T06:04:06;7.93;;;5.35;;
11016;SDS011;54687;50.800;6.772;2023-05-19T06:06:32;8.07;;;5.28;;
11016;SDS011;54687;50.800;6.772;2023-05-19T06:09:00;6.68;;;5.18;;
11016;SDS011;54687;50.800;6.772;2023-05-19T06:11:26;7.00;;;5.43;;
11016;SDS011;54687;50.800;6.772;2023-05-19T06:13:54;5.75;;;4.78;;
11016;SDS011;54687;50.800;6.772;2023-05-19T06:16:20;5.63;;;5.07;;
11016;SDS011;54687;50.800;6.772;2023-05-19T06:18:48;6.95;;;5.18;;
11016;SDS011;54687;50.800;6.772;2023-05-19T06:21:15;7.50;;;5.55;;
11016;SDS011;54687;50.800;6.772;2023-05-19T06:23:42;10.27;;;5.53;;
11016;SDS011;54687;50.800;6.772;2023-05-19T06:26:09;7.97;;;5.63;;
11016;SDS011;54687;50.800;6.772;2023-05-19T06:28:36;9.18;;;5.78;;
11016;SDS011;54687;50.800;6.772;2023-05-19T06:31:02;9.23;;;5.50;;
11016;SDS011;54687;50.800;6.772;2023-05-19T06:33:30;7.22;;;5.13;;
11016;SDS011;54687;50.800;6.772;2023-05-19T06:35:58;6.47;;;4.78;;
11016;SDS011;54687;50.800;6.772;2023-05-19T06:38:24;6.13;;;4.55;;
11016;SDS011;54687;50.800;6.772;2023-05-19T06:40:51;6.47;;;4.90;;
11016;SDS011;54687;50.800;6.772;2023-05-19T06:43:17;7.75;;;5.18;;
11016;SDS011;54687;50.800;6.772;2023-05-19T06:45:44;8.82;;;5.65;;
11016;SDS011;54687;50.800;6.772;2023-05-19T06:48:10;6.13;;;5.50;;
11016;SDS011;54687;50.800;6.772;2023-05-19T06:50:37;10.43;;;5.43;;
11016;SDS011;54687;50.800;6.772;2023-05-19T06:53:07;6.07;;;5.47;;
11016;SDS011;54687;50.800;6.772;2023-05-19T06:55:33;8.05;;;5.00;;
11016;SDS011;54687;50.800;6.772;2023-05-19T06:58:00;7.00;;;4.78;;
11016;SDS011;54687;50.800;6.772;2023-05-19T07:00:27;6.40;;;5.03;;
11016;SDS011;54687;50.800;6.772;2023-05-19T07:02:53;6.90;;;4.63;;
11016;SDS011;54687;50.800;6.772;2023-05-19T07:05:20;6.38;;;5.22;;
11016;SDS011;54687;50.800;6.772;2023-05-19T07:07:47;5.40;;;4.65;;
11016;SDS011;54687;50.800;6.772;2023-05-19T07:10:15;8.15;;;4.78;;
11016;SDS011;54687;50.800;6.772;2023-05-19T07:12:42;5.65;;;4.68;;
11016;SDS011;54687;50.800;6.772;2023-05-19T07:15:09;6.15;;;4.70;;
11016;SDS011;54687;50.800;6.772;2023-05-19T07:17:36;6.40;;;4.70;;
11016;SDS011;54687;50.800;6.772;2023-05-19T07:20:03;7.53;;;5.03;;
11016;SDS011;54687;50.800;6.772;2023-05-19T07:22:31;6.75;;;4.40;;
11016;SDS011;54687;50.800;6.772;2023-05-19T07:24:59;7.75;;;4.43;;
11016;SDS011;54687;50.800;6.772;2023-05-19T07:27:27;6.00;;;3.92;;
11016;SDS011;54687;50.800;6.772;2023-05-19T07:29:53;6.13;;;4.05;;
11016;SDS011;54687;50.800;6.772;2023-05-19T07:32:20;5.22;;;3.90;;
11016;SDS011;54687;50.800;6.772;2023-05-19T07:34:48;6.07;;;3.80;;
11016;SDS011;54687;50.800;6.772;2023-05-19T07:37:15;4.70;;;2.97;;
11016;SDS011;54687;50.800;6.772;2023-05-19T07:39:41;5.18;;;2.80;;
11016;SDS011;54687;50.800;6.772;2023-05-19T07:42:08;4.60;;;2.80;;
11016;SDS011;54687;50.800;6.772;2023-05-19T07:44:38;6.15;;;2.70;;
11016;SDS011;54687;50.800;6.772;2023-05-19T07:47:05;3.97;;;2.80;;
11016;SDS011;54687;50.800;6.772;2023-05-19T07:49:31;2.22;;;2.05;;
11016;SDS011;54687;50.800;6.772;2023-05-19T07:51:58;4.22;;;3.17;;
11016;SDS011;54687;50.800;6.772;2023-05-19T07:54:24;4.50;;;2.90;;
11016;SDS011;54687;50.800;6.772;2023-05-19T07:56:52;5.45;;;2.92;;
11016;SDS011;54687;50.800;6.772;2023-05-19T07:59:19;3.65;;;2.75;;
11016;SDS011;54687;50.800;6.772;2023-05-19T08:01:47;4.50;;;2.65;;
11016;SDS011;54687;50.800;6.772;2023-05-19T08:04:14;6.90;;;3.60;;
11016;SDS011;54687;50.800;6.772;2023-05-19T08:06:40;8.77;;;3.40;;
11016;SDS011;54687;50.800;6.772;2023-05-19T08:09:08;6.55;;;3.60;;
11016;SDS011;54687;50.800;6.772;2023-05-19T08:11:36;6.20;;;3.03;;
11016;SDS011;54687;50.800;6.772;2023-05-19T08:14:02;4.70;;;3.30;;
11016;SDS011;54687;50.800;6.772;2023-05-19T08:16:31;4.90;;;3.22;;
11016;SDS011;54687;50.800;6.772;2023-05-19T08:18:59;4.05;;;2.90;;
11016;SDS011;54687;50.800;6.772;2023-05-19T08:21:28;7.07;;;3.47;;
11016;SDS011;54687;50.800;6.772;2023-05-19T08:23:55;7.10;;;3.50;;
11016;SDS011;54687;50.800;6.772;2023-05-19T08:26:23;3.67;;;2.72;;
11016;SDS011;54687;50.800;6.772;2023-05-19T08:28:50;4.32;;;2.65;;
11016;SDS011;54687;50.800;6.772;2023-05-19T08:31:17;4.63;;;2.60;;
11016;SDS011;54687;50.800;6.772;2023-05-19T08:33:43;4.72;;;2.13;;
11016;SDS011;54687;50.800;6.772;2023-05-19T08:36:12;6.45;;;2.85;;
11016;SDS011;54687;50.800;6.772;2023-05-19T08:38:38;5.32;;;2.83;;
11016;SDS011;54687;50.800;6.772;2023-05-19T08:41:05;3.10;;;2.40;;
11016;SDS011;54687;50.800;6.772;2023-05-19T08:43:32;5.43;;;2.90;;
11016;SDS011;54687;50.800;6.772;2023-05-19T08:45:59;5.45;;;2.78;;
11016;SDS011;54687;50.800;6.772;2023-05-19T08:48:26;3.97;;;2.50;;
11016;SDS011;54687;50.800;6.772;2023-05-19T08:50:55;4.40;;;2.78;;
11016;SDS011;54687;50.800;6.772;2023-05-19T08:53:41;4.32;;;2.60;;
11016;SDS011;54687;50.800;6.772;2023-05-19T08:56:15;4.10;;;2.70;;
11016;SDS011;54687;50.800;6.772;2023-05-19T08:58:46;5.35;;;2.90;;
11016;SDS011;54687;50.800;6.772;2023-05-19T09:01:15;5.20;;;2.50;;
11016;SDS011;54687;50.800;6.772;2023-05-19T09:03:42;3.88;;;2.70;;
11016;SDS011;54687;50.800;6.772;2023-05-19T09:06:10;6.65;;;2.97;;
11016;SDS011;54687;50.800;6.772;2023-05-19T09:08:37;8.90;;;3.30;;
11016;SDS011;54687;50.800;6.772;2023-05-19T09:11:06;6.00;;;4.00;;
11016;SDS011;54687;50.800;6.772;2023-05-19T09:13:33;4.45;;;3.33;;
11016;SDS011;54687;50.800;6.772;2023-05-19T09:16:02;6.78;;;3.42;;
11016;SDS011;54687;50.800;6.772;2023-05-19T09:18:29;5.60;;;3.10;;
11016;SDS011;54687;50.800;6.772;2023-05-19T09:20:57;3.53;;;2.58;;
11016;SDS011;54687;50.800;6.772;2023-05-19T09:23:25;5.95;;;3.10;;
11016;SDS011;54687;50.800;6.772;2023-05-19T09:25:53;5.57;;;2.95;;
11016;SDS011;54687;50.800;6.772;2023-05-19T09:28:26;5.07;;;3.05;;
11016;SDS011;54687;50.800;6.772;2023-05-19T09:30:59;6.18;;;3.25;;
11016;SDS011;54687;50.800;6.772;2023-05-19T09:33:27;6.18;;;3.00;;
11016;SDS011;54687;50.800;6.772;2023-05-19T09:35:54;6.88;;;3.08;;
11016;SDS011;54687;50.800;6.772;2023-05-19T09:38:22;5.90;;;3.45;;
11016;SDS011;54687;50.800;6.772;2023-05-19T09:40:49;6.10;;;3.10;;
11016;SDS011;54687;50.800;6.772;2023-05-19T09:43:16;7.80;;;3.35;;
11016;SDS011;54687;50.800;6.772;2023-05-19T09:45:45;6.13;;;3.20;;
11016;SDS011;54687;50.800;6.772;2023-05-19T09:48:12;3.80;;;2.90;;
11016;SDS011;54687;50.800;6.772;2023-05-19T09:50:41;4.00;;;3.03;;
11016;SDS011;54687;50.800;6.772;2023-05-19T09:53:08;6.07;;;3.42;;
11016;SDS011;54687;50.800;6.772;2023-05-19T09:55:38;3.78;;;2.75;;
11016;SDS011;54687;50.800;6.772;2023-05-19T09:58:05;4.30;;;2.35;;
11016;SDS011;54687;50.800;6.772;2023-05-19T10:00:32;7.15;;;3.28;;
11016;SDS011;54687;50.800;6.772;2023-05-19T10:03:00;5.78;;;2.80;;
11016;SDS011;54687;50.800;6.772;2023-05-19T10:05:31;3.08;;;2.58;;
11016;SDS011;54687;50.800;6.772;2023-05-19T10:07:58;4.57;;;2.40;;
11016;SDS011;54687;50.800;6.772;2023-05-19T10:10:26;4.55;;;2.80;;
11016;SDS011;54687;50.800;6.772;2023-05-19T10:12:55;4.28;;;2.47;;
11016;SDS011;54687;50.800;6.772;2023-05-19T10:15:24;4.97;;;3.03;;
11016;SDS011;54687;50.800;6.772;2023-05-19T10:17:51;5.25;;;2.80;;
11016;SDS011;54687;50.800;6.772;2023-05-19T10:20:20;3.75;;;3.30;;
11016;SDS011;54687;50.800;6.772;2023-05-19T10:22:48;6.13;;;2.50;;
11016;SDS011;54687;50.800;6.772;2023-05-19T10:25:14;4.45;;;2.97;;
11016;SDS011;54687;50.800;6.772;2023-05-19T10:27:47;5.20;;;3.08;;
11016;SDS011;54687;50.800;6.772;2023-05-19T10:30:20;5.13;;;3.53;;
11016;SDS011;54687;50.800;6.772;2023-05-19T10:32:51;5.15;;;3.40;;
11016;SDS011;54687;50.800;6.772;2023-05-19T10:35:34;7.47;;;3.30;;
11016;SDS011;54687;50.800;6.772;2023-05-19T10:38:22;6.13;;;3.15;;
11016;SDS011;54687;50.800;6.772;2023-05-19T10:40:56;5.78;;;3.10;;
11016;SDS011;54687;50.800;6.772;2023-05-19T10:43:36;6.85;;;2.83;;
11016;SDS011;54687;50.800;6.772;2023-05-19T10:46:10;6.10;;;3.13;;
11016;SDS011;54687;50.800;6.772;2023-05-19T10:48:36;3.80;;;2.83;;
11016;SDS011;54687;50.800;6.772;2023-05-19T10:51:04;5.70;;;4.00;;
11016;SDS011;54687;50.800;6.772;2023-05-19T10:53:37;11.77;;;5.90;;
11016;SDS011;54687;50.800;6.772;2023-05-19T10:56:26;6.85;;;3.10;;
11016;SDS011;54687;50.800;6.772;2023-05-19T10:58:55;5.38;;;2.95;;
11016;SDS011;54687;50.800;6.772;2023-05-19T11:01:21;9.23;;;3.22;;
11016;SDS011;54687;50.800;6.772;2023-05-19T11:03:55;4.72;;;2.70;;
11016;SDS011;54687;50.800;6.772;2023-05-19T11:06:26;4.13;;;2.83;;
11016;SDS011;54687;50.800;6.772;2023-05-19T11:08:57;4.10;;;2.70;;
11016;SDS011;54687;50.800;6.772;2023-05-19T11:11:26;4.40;;;2.40;;
11016;SDS011;54687;50.800;6.772;2023-05-19T11:14:09;4.57;;;2.90;;
11016;SDS011;54687;50.800;6.772;2023-05-19T11:16:37;4.40;;;2.75;;
11016;SDS011;54687;50.800;6.772;2023-05-19T11:19:05;2.90;;;2.13;;
11016;SDS011;54687;50.800;6.772;2023-05-19T11:21:43;4.60;;;3.40;;
11016;SDS011;54687;50.800;6.772;2023-05-19T11:26:59;6.68;;;4.30;;
11016;SDS011;54687;50.800;6.772;2023-05-19T11:29:44;5.43;;;3.90;;
11016;SDS011;54687;50.800;6.772;2023-05-19T11:32:12;6.68;;;3.60;;
11016;SDS011;54687;50.800;6.772;2023-05-19T11:34:39;6.05;;;3.05;;
11016;SDS011;54687;50.800;6.772;2023-05-19T11:37:07;5.15;;;3.50;;
11016;SDS011;54687;50.800;6.772;2023-05-19T11:39:34;7.82;;;3.45;;
11016;SDS011;54687;50.800;6.772;2023-05-19T11:42:01;6.05;;;3.03;;
11016;SDS011;54687;50.800;6.772;2023-05-19T11:44:27;6.38;;;3.17;;
11016;SDS011;54687;50.800;6.772;2023-05-19T11:46:55;6.68;;;3.35;;
11016;SDS011;54687;50.800;6.772;2023-05-19T11:49:22;5.80;;;3.58;;
11016;SDS011;54687;50.800;6.772;2023-05-19T11:51:49;4.68;;;3.22;;
11016;SDS011;54687;50.800;6.772;2023-05-19T11:54:17;4.85;;;3.30;;
11016;SDS011;54687;50.800;6.772;2023-05-19T11:56:45;4.68;;;2.92;;
11016;SDS011;54687;50.800;6.772;2023-05-19T11:59:12;5.72;;;3.40;;
11016;SDS011;54687;50.800;6.772;2023-05-19T12:01:39;6.28;;;3.10;;
11016;SDS011;54687;50.800;6.772;2023-05-19T12:04:06;6.00;;;2.50;;
11016;SDS011;54687;50.800;6.772;2023-05-19T12:06:34;3.90;;;2.50;;
11016;SDS011;54687;50.800;6.772;2023-05-19T12:09:01;7.57;;;2.63;;
11016;SDS011;54687;50.800;6.772;2023-05-19T12:11:31;13.13;;;4.00;;
11016;SDS011;54687;50.800;6.772;2023-05-19T12:13:58;5.38;;;2.78;;
11016;SDS011;54687;50.800;6.772;2023-05-19T12:16:31;3.33;;;2.65;;
11016;SDS011;54687;50.800;6.772;2023-05-19T12:18:58;5.90;;;2.97;;
11016;SDS011;54687;50.800;6.772;2023-05-19T12:21:25;2.50;;;2.20;;
11016;SDS011;54687;50.800;6.772;2023-05-19T12:23:51;5.97;;;3.33;;
11016;SDS011;54687;50.800;6.772;2023-05-19T12:26:20;5.18;;;2.63;;
11016;SDS011;54687;50.800;6.772;2023-05-19T12:28:48;4.57;;;3.03;;
11016;SDS011;54687;50.800;6.772;2023-05-19T12:31:16;8.77;;;3.22;;
11016;SDS011;54687;50.800;6.772;2023-05-19T12:33:44;4.95;;;2.90;;
11016;SDS011;54687;50.800;6.772;2023-05-19T12:36:11;3.85;;;2.58;;
11016;SDS011;54687;50.800;6.772;2023-05-19T12:38:39;3.75;;;2.38;;
11016;SDS011;54687;50.800;6.772;2023-05-19T12:41:06;4.60;;;2.50;;
11016;SDS011;54687;50.800;6.772;2023-05-19T12:43:33;5.90;;;3.13;;
11016;SDS011;54687;50.800;6.772;2023-05-19T12:46:09;6.43;;;3.10;;
11016;SDS011;54687;50.800;6.772;2023-05-19T12:48:38;5.55;;;3.65;;
11016;SDS011;54687;50.800;6.772;2023-05-19T12:51:05;9.52;;;3.42;;
11016;SDS011;54687;50.800;6.772;2023-05-19T12:53:32;4.68;;;2.80;;
11016;SDS011;54687;50.800;6.772;2023-05-19T12:55:59;4.88;;;2.80;;
11016;SDS011;54687;50.800;6.772;2023-05-19T12:58:26;6.97;;;2.80;;
11016;SDS011;54687;50.800;6.772;2023-05-19T13:00:57;5.72;;;2.70;;
11016;SDS011;54687;50.800;6.772;2023-05-19T13:03:26;3.22;;;2.70;;
11016;SDS011;54687;50.800;6.772;2023-05-19T13:05:52;4.60;;;2.60;;
11016;SDS011;54687;50.800;6.772;2023-05-19T13:08:20;5.53;;;2.45;;
11016;SDS011;54687;50.800;6.772;2023-05-19T13:10:48;3.97;;;2.42;;
11016;SDS011;54687;50.800;6.772;2023-05-19T13:13:15;6.68;;;3.33;;
11016;SDS011;54687;50.800;6.772;2023-05-19T13:15:42;3.45;;;2.78;;
11016;SDS011;54687;50.800;6.772;2023-05-19T13:18:13;4.80;;;2.70;;
11016;SDS011;54687;50.800;6.772;2023-05-19T13:20:42;4.22;;;2.50;;
11016;SDS011;54687;50.800;6.772;2023-05-19T13:23:09;5.20;;;2.50;;
11016;SDS011;54687;50.800;6.772;2023-05-19T13:25:36;3.75;;;2.53;;
11016;SDS011;54687;50.800;6.772;2023-05-19T13:28:04;4.65;;;2.88;;
11016;SDS011;54687;50.800;6.772;2023-05-19T13:30:31;4.40;;;2.65;;
11016;SDS011;54687;50.800;6.772;2023-05-19T13:32:58;5.47;;;3.03;;
11016;SDS011;54687;50.800;6.772;2023-05-19T13:35:24;3.72;;;3.00;;
11016;SDS011;54687;50.800;6.772;2023-05-19T13:37:53;5.28;;;2.92;;
11016;SDS011;54687;50.800;6.772;2023-05-19T13:40:20;3.75;;;2.67;;
11016;SDS011;54687;50.800;6.772;2023-05-19T13:42:47;6.20;;;3.13;;
11016;SDS011;54687;50.800;6.772;2023-05-19T13:45:14;5.55;;;2.80;;
11016;SDS011;54687;50.800;6.772;2023-05-19T13:47:43;2.88;;;2.40;;
11016;SDS011;54687;50.800;6.772;2023-05-19T13:50:09;7.53;;;2.53;;
11016;SDS011;54687;50.800;6.772;2023-05-19T13:52:36;2.95;;;2.65;;
11016;SDS011;54687;50.800;6.772;2023-05-19T13:55:04;3.30;;;2.70;;
11016;SDS011;54687;50.800;6.772;2023-05-19T13:57:31;4.25;;;2.55;;
11016;SDS011;54687;50.800;6.772;2023-05-19T13:59:59;4.25;;;2.85;;
11016;SDS011;54687;50.800;6.772;2023-05-19T14:02:27;5.90;;;3.20;;
11016;SDS011;54687;50.800;6.772;2023-05-19T14:04:53;11.30;;;3.22;;
11016;SDS011;54687;50.800;6.772;2023-05-19T14:07:21;4.82;;;3.15;;
11016;SDS011;54687;50.800;6.772;2023-05-19T14:09:49;3.80;;;2.83;;
11016;SDS011;54687;50.800;6.772;2023-05-19T14:12:17;3.40;;;2.42;;
11016;SDS011;54687;50.800;6.772;2023-05-19T14:14:45;3.80;;;2.72;;
11016;SDS011;54687;50.800;6.772;2023-05-19T14:17:13;5.10;;;2.75;;
11016;SDS011;54687;50.800;6.772;2023-05-19T14:19:39;5.95;;;3.03;;
11016;SDS011;54687;50.800;6.772;2023-05-19T14:22:06;4.40;;;3.53;;
11016;SDS011;54687;50.800;6.772;2023-05-19T14:24:33;4.22;;;3.03;;
11016;SDS011;54687;50.800;6.772;2023-05-19T14:26:59;4.57;;;2.70;;
11016;SDS011;54687;50.800;6.772;2023-05-19T14:29:28;3.33;;;3.03;;
11016;SDS011;54687;50.800;6.772;2023-05-19T14:31:55;5.25;;;3.20;;
11016;SDS011;54687;50.800;6.772;2023-05-19T14:34:21;3.10;;;2.47;;
11016;SDS011;54687;50.800;6.772;2023-05-19T14:36:48;4.65;;;2.42;;
11016;SDS011;54687;50.800;6.772;2023-05-19T14:39:15;4.90;;;3.10;;
11016;SDS011;54687;50.800;6.772;2023-05-19T14:41:41;5.40;;;3.38;;
11016;SDS011;54687;50.800;6.772;2023-05-19T14:44:08;5.82;;;2.20;;
11016;SDS011;54687;50.800;6.772;2023-05-19T14:46:36;3.22;;;2.15;;
11016;SDS011;54687;50.800;6.772;2023-05-19T14:49:02;4.80;;;2.80;;
11016;SDS011;54687;50.800;6.772;2023-05-19T14:51:30;5.03;;;2.92;;
11016;SDS011;54687;50.800;6.772;2023-05-19T14:53:57;3.60;;;2.50;;
11016;SDS011;54687;50.800;6.772;2023-05-19T14:56:24;5.45;;;3.17;;
11016;SDS011;54687;50.800;6.772;2023-05-19T14:58:51;6.32;;;2.83;;